createdAt,value
2022-11-17T00:01:50.230Z,8.20
2022-11-17T00:04:18.200Z,8.20
2022-11-17T00:06:46.156Z,8.20
2022-11-17T00:09:17.552Z,8.20
2022-11-17T00:12:03.266Z,8.20
2022-11-17T00:14:34.666Z,8.20
2022-11-17T00:17:05.689Z,8.20
2022-11-17T00:19:50.890Z,8.20
2022-11-17T00:22:18.792Z,8.20
2022-11-17T00:24:49.387Z,8.20
2022-11-17T00:27:17.362Z,8.20
2022-11-17T00:29:45.398Z,8.10
2022-11-17T00:32:38.240Z,8.20
2022-11-17T00:35:07.272Z,8.20
2022-11-17T00:37:38.213Z,8.10
2022-11-17T00:40:07.450Z,8.10
2022-11-17T00:42:35.365Z,8.10
2022-11-17T00:45:03.346Z,8.10
2022-11-17T00:47:36.569Z,8.10
2022-11-17T00:50:05.118Z,8.10
2022-11-17T00:52:33.038Z,8.10
2022-11-17T00:55:01.077Z,8.10
2022-11-17T00:57:29.065Z,8.10
2022-11-17T00:59:57.153Z,8.00
2022-11-17T01:02:25.116Z,8.10
2022-11-17T01:04:54.383Z,8.10
2022-11-17T01:07:22.999Z,8.00
2022-11-17T01:09:51.150Z,8.10
2022-11-17T01:12:19.196Z,8.00
2022-11-17T01:14:47.793Z,8.00
2022-11-17T01:17:15.769Z,8.10
2022-11-17T01:19:43.806Z,8.00
2022-11-17T01:22:13.113Z,8.00
2022-11-17T01:24:41.089Z,8.00
2022-11-17T01:27:09.191Z,8.00
2022-11-17T01:29:37.061Z,8.00
2022-11-17T01:32:05.454Z,8.00
2022-11-17T01:34:33.522Z,8.00
2022-11-17T01:37:18.919Z,8.00
2022-11-17T01:39:48.530Z,8.00
2022-11-17T01:42:20.175Z,8.00
2022-11-17T01:44:59.964Z,8.00
2022-11-17T01:47:34.061Z,8.00
2022-11-17T01:50:07.664Z,8.00
2022-11-17T01:52:38.505Z,8.00
2022-11-17T01:55:09.722Z,8.00
2022-11-17T01:57:43.770Z,8.00
2022-11-17T02:00:15.821Z,8.00
2022-11-17T02:02:46.326Z,8.00
2022-11-17T02:05:31.359Z,8.00
2022-11-17T02:08:02.091Z,8.00
2022-11-17T02:10:32.896Z,8.00
2022-11-17T02:13:01.592Z,7.90
2022-11-17T02:15:30.506Z,7.90
2022-11-17T02:18:00.722Z,7.90
2022-11-17T02:20:51.009Z,7.90
2022-11-17T02:23:47.977Z,7.90
2022-11-17T02:26:38.998Z,7.90
2022-11-17T02:29:14.394Z,7.90
2022-11-17T02:31:54.040Z,7.90
2022-11-17T02:34:39.587Z,7.90
2022-11-17T02:37:18.441Z,7.90
2022-11-17T02:39:52.667Z,7.90
2022-11-17T02:42:47.924Z,7.80
2022-11-17T02:45:21.026Z,7.90
2022-11-17T02:47:51.709Z,7.90
2022-11-17T02:50:27.866Z,7.80
2022-11-17T02:52:56.401Z,7.80
2022-11-17T02:55:24.370Z,7.80
2022-11-17T02:57:52.353Z,7.80
2022-11-17T03:00:22.033Z,7.80
2022-11-17T03:03:15.573Z,7.80
2022-11-17T03:05:57.772Z,7.80
2022-11-17T03:08:33.322Z,7.80
2022-11-17T03:11:03.709Z,7.80
2022-11-17T03:13:43.414Z,7.80
2022-11-17T03:16:22.038Z,7.80
2022-11-17T03:19:01.754Z,7.80
2022-11-17T03:21:33.652Z,7.80
2022-11-17T03:24:06.543Z,7.80
2022-11-17T03:26:37.497Z,7.80
2022-11-17T03:29:11.401Z,7.80
2022-11-17T03:31:44.052Z,7.70
2022-11-17T03:34:16.569Z,7.70
2022-11-17T03:36:49.115Z,7.70
2022-11-17T03:39:23.593Z,7.70
2022-11-17T03:42:00.811Z,7.70
2022-11-17T03:44:31.178Z,7.70
2022-11-17T03:47:03.914Z,7.70
2022-11-17T03:49:41.520Z,7.70
2022-11-17T03:52:09.619Z,7.70
2022-11-17T03:54:37.965Z,7.70
2022-11-17T03:57:09.194Z,7.70
2022-11-17T03:59:43.805Z,7.70
2022-11-17T04:02:18.216Z,7.60
2022-11-17T04:05:03.631Z,7.70
2022-11-17T04:07:31.755Z,7.70
2022-11-17T04:09:59.706Z,7.60
2022-11-17T04:12:45.591Z,7.60
2022-11-17T04:15:31.056Z,7.60
2022-11-17T04:18:00.717Z,7.60
2022-11-17T04:20:35.789Z,7.60
2022-11-17T04:23:11.333Z,7.60
2022-11-17T04:25:59.266Z,7.60
2022-11-17T04:28:40.661Z,7.60
2022-11-17T04:31:11.552Z,7.60
2022-11-17T04:33:42.403Z,7.60
2022-11-17T04:36:11.377Z,7.60
2022-11-17T04:38:42.859Z,7.60
2022-11-17T04:41:30.313Z,7.60
2022-11-17T04:43:58.639Z,7.50
2022-11-17T04:46:27.603Z,7.60
2022-11-17T04:49:00.908Z,7.60
2022-11-17T04:51:29.706Z,7.60
2022-11-17T04:53:57.946Z,7.60
2022-11-17T04:56:26.730Z,7.60
2022-11-17T04:58:55.044Z,7.50
2022-11-17T05:01:23.987Z,7.50
2022-11-17T05:03:53.853Z,7.50
2022-11-17T05:06:25.034Z,7.50
2022-11-17T05:08:55.775Z,7.50
2022-11-17T05:11:43.181Z,7.50
2022-11-17T05:14:11.920Z,7.50
2022-11-17T05:17:04.510Z,7.50
2022-11-17T05:19:38.113Z,7.50
2022-11-17T05:22:28.551Z,7.50
2022-11-17T05:24:56.072Z,7.50
2022-11-17T05:27:24.845Z,7.50
2022-11-17T05:29:53.512Z,7.50
2022-11-17T05:32:21.558Z,7.50
2022-11-17T05:34:49.507Z,7.50
2022-11-17T05:37:18.966Z,7.40
2022-11-17T05:39:46.951Z,7.40
2022-11-17T05:42:14.936Z,7.40
2022-11-17T05:44:42.824Z,7.40
2022-11-17T05:47:10.734Z,7.40
2022-11-17T05:49:38.690Z,7.40
2022-11-17T05:52:06.832Z,7.40
2022-11-17T05:54:36.078Z,7.40
2022-11-17T05:57:07.609Z,7.40
2022-11-17T05:59:41.913Z,7.40
2022-11-17T06:02:15.526Z,7.40
2022-11-17T06:04:44.392Z,7.40
2022-11-17T06:07:12.482Z,7.40
2022-11-17T06:09:43.132Z,7.40
2022-11-17T06:12:12.024Z,7.30
2022-11-17T06:14:40.231Z,7.30
2022-11-17T06:17:13.469Z,7.30
2022-11-17T06:19:50.396Z,7.30
2022-11-17T06:22:18.474Z,7.30
2022-11-17T06:24:47.941Z,7.30
2022-11-17T06:27:17.669Z,7.30
2022-11-17T06:29:49.260Z,7.30
2022-11-17T06:32:19.723Z,7.30
2022-11-17T06:34:55.699Z,7.30
2022-11-17T06:37:24.773Z,7.30
2022-11-17T06:39:54.212Z,7.30
2022-11-17T06:42:42.842Z,7.30
2022-11-17T06:45:12.137Z,7.30
2022-11-17T06:47:40.090Z,7.30
2022-11-17T06:50:08.983Z,7.30
2022-11-17T06:52:36.984Z,7.20
2022-11-17T06:55:07.646Z,7.20
2022-11-17T06:57:35.717Z,7.20
2022-11-17T07:00:06.197Z,7.20
2022-11-17T07:02:37.504Z,7.20
2022-11-17T07:05:06.258Z,7.20
2022-11-17T07:07:34.550Z,7.20
2022-11-17T07:10:02.976Z,7.20
2022-11-17T07:12:32.370Z,7.20
2022-11-17T07:15:00.545Z,7.20
2022-11-17T07:17:29.643Z,7.20
2022-11-17T07:20:00.215Z,7.20
2022-11-17T07:22:28.259Z,7.10
2022-11-17T07:24:56.362Z,7.10
2022-11-17T07:27:24.358Z,7.20
2022-11-17T07:29:53.810Z,7.10
2022-11-17T07:32:22.158Z,7.10
2022-11-17T07:34:50.250Z,7.10
2022-11-17T07:37:18.424Z,7.10
2022-11-17T07:39:46.385Z,7.10
2022-11-17T07:42:14.379Z,7.10
2022-11-17T07:44:42.323Z,7.10
2022-11-17T07:47:13.063Z,7.10
2022-11-17T07:49:41.067Z,7.10
2022-11-17T07:52:09.230Z,7.10
2022-11-17T07:54:37.441Z,7.00
2022-11-17T07:57:05.532Z,7.00
2022-11-17T07:59:33.627Z,7.10
2022-11-17T08:02:01.678Z,7.00
2022-11-17T08:04:31.218Z,7.00
2022-11-17T08:07:01.086Z,7.00
2022-11-17T08:09:34.950Z,7.00
2022-11-17T08:12:03.173Z,7.00
2022-11-17T08:14:31.145Z,7.00
2022-11-17T08:16:59.141Z,7.00
2022-11-17T08:19:27.252Z,7.00
2022-11-17T08:22:14.875Z,7.00
2022-11-17T08:25:12.263Z,7.00
2022-11-17T08:28:26.568Z,7.00
2022-11-17T08:34:48.521Z,6.90
2022-11-17T08:37:39.729Z,6.90
2022-11-17T08:40:32.278Z,7.00
2022-11-17T08:43:01.664Z,6.90
2022-11-17T08:50:23.184Z,6.90
2022-11-17T08:52:53.492Z,6.90
2022-11-17T08:55:42.181Z,6.90
2022-11-17T09:09:47.056Z,6.90
2022-11-17T09:50:14.277Z,6.80
2022-11-17T09:53:09.001Z,6.80
2022-11-17T09:55:50.113Z,6.80
2022-11-17T10:07:21.698Z,6.80
2022-11-17T10:10:00.526Z,6.80
2022-11-17T10:12:56.513Z,6.80
2022-11-17T10:15:29.891Z,6.80
2022-11-17T10:17:57.975Z,6.80
2022-11-17T10:20:26.405Z,6.80
2022-11-17T10:23:26.682Z,6.80
2022-11-17T10:25:59.407Z,6.80
2022-11-17T10:28:39.433Z,6.80
2022-11-17T10:31:19.236Z,6.80
2022-11-17T10:33:49.097Z,6.80
2022-11-17T10:36:22.008Z,6.80
2022-11-17T10:38:51.774Z,6.70
2022-11-17T10:42:28.711Z,6.70
2022-11-17T10:45:01.644Z,6.80
2022-11-17T10:47:33.580Z,6.80
2022-11-17T10:54:50.581Z,6.80
2022-11-17T11:01:37.971Z,6.80
2022-11-17T11:04:30.343Z,6.80
2022-11-17T11:07:12.314Z,6.80
2022-11-17T11:09:47.935Z,6.80
2022-11-17T11:12:30.702Z,6.80
2022-11-17T11:15:01.580Z,6.80
2022-11-17T11:17:31.314Z,6.80
2022-11-17T11:20:00.831Z,6.80
2022-11-17T11:22:36.192Z,6.80
2022-11-17T11:25:13.330Z,6.80
2022-11-17T11:28:07.707Z,6.80
2022-11-17T11:30:41.367Z,6.80
2022-11-17T11:33:24.888Z,6.80
2022-11-17T11:36:16.936Z,6.80
2022-11-17T11:38:59.125Z,6.80
2022-11-17T11:41:46.164Z,6.80
2022-11-17T11:44:40.347Z,6.80
2022-11-17T11:47:18.672Z,6.80
2022-11-17T11:49:55.625Z,6.80
2022-11-17T11:52:28.791Z,6.90
2022-11-17T11:55:00.812Z,6.90
2022-11-17T12:01:49.849Z,6.90
2022-11-17T12:04:49.598Z,6.90
2022-11-17T12:11:21.828Z,6.90
2022-11-17T12:13:54.162Z,6.90
2022-11-17T12:16:29.922Z,6.90
2022-11-17T12:19:09.154Z,6.90
2022-11-17T12:21:37.633Z,6.90
2022-11-17T12:24:25.197Z,6.90
2022-11-17T12:27:33.654Z,6.90
2022-11-17T12:30:36.021Z,6.90
2022-11-17T12:34:03.686Z,6.90
2022-11-17T12:37:08.301Z,6.90
2022-11-17T12:40:13.255Z,6.90
2022-11-17T12:43:44.145Z,6.90
2022-11-17T12:46:48.367Z,6.90
2022-11-17T12:49:39.955Z,6.90
2022-11-17T12:52:20.611Z,6.90
2022-11-17T12:55:39.574Z,6.90
2022-11-17T13:03:13.583Z,6.90
2022-11-17T13:09:44.197Z,6.90
2022-11-17T13:12:41.265Z,6.90
2022-11-17T13:20:10.695Z,6.90
2022-11-17T13:23:11.217Z,6.90
2022-11-17T13:25:56.290Z,6.90
2022-11-17T13:28:45.040Z,6.90
2022-11-17T13:31:37.149Z,6.90
2022-11-17T13:34:23.758Z,6.90
2022-11-17T13:37:11.914Z,6.90
2022-11-17T13:58:37.778Z,6.90
2022-11-17T14:02:02.934Z,6.90
2022-11-17T14:04:50.501Z,6.90
2022-11-17T14:15:19.209Z,6.90
2022-11-17T14:18:34.017Z,6.90
2022-11-17T14:25:43.651Z,6.90
2022-11-17T14:40:48.904Z,6.90
2022-11-17T14:47:53.260Z,6.90
2022-11-17T14:50:27.029Z,6.90
2022-11-17T14:52:58.466Z,6.90
2022-11-17T14:55:59.337Z,6.90
2022-11-17T14:58:39.012Z,6.90
2022-11-17T15:01:19.707Z,6.90
2022-11-17T15:04:04.174Z,6.90
2022-11-17T15:06:49.048Z,6.90
2022-11-17T15:09:19.872Z,6.90
2022-11-17T15:11:56.129Z,6.90
2022-11-17T15:14:24.563Z,6.90
2022-11-17T15:16:52.728Z,6.90
2022-11-17T15:19:20.844Z,6.90
2022-11-17T15:21:49.189Z,6.90
2022-11-17T15:24:18.080Z,6.90
2022-11-17T15:27:15.176Z,6.90
2022-11-17T15:29:59.157Z,6.90
2022-11-17T15:32:30.543Z,6.90
2022-11-17T15:35:00.784Z,6.90
2022-11-17T15:37:40.628Z,6.90
2022-11-17T15:40:24.199Z,6.90
2022-11-17T15:43:56.058Z,6.90
2022-11-17T15:46:59.330Z,6.90
2022-11-17T15:53:03.912Z,6.90
2022-11-17T16:03:27.418Z,6.90
2022-11-17T16:53:31.493Z,6.80
2022-11-17T16:56:30.028Z,6.90
2022-11-17T17:02:56.075Z,6.80
2022-11-17T17:06:10.478Z,6.80
2022-11-17T17:09:03.212Z,6.80
2022-11-17T17:12:09.527Z,6.80
2022-11-17T17:22:58.996Z,6.80
2022-11-17T17:26:48.120Z,6.80
2022-11-17T17:33:10.712Z,6.80
2022-11-17T18:40:02.430Z,6.80
2022-11-17T18:53:30.096Z,6.80
2022-11-17T19:01:25.069Z,6.80
2022-11-17T20:44:47.382Z,6.80
2022-11-17T22:08:49.112Z,6.80
2022-11-17T22:33:15.610Z,6.80
2022-11-17T23:13:45.526Z,6.80
2022-11-17T23:17:10.571Z,6.80
2022-11-17T23:20:19.964Z,6.80
2022-11-17T23:23:41.224Z,6.80
2022-11-17T23:26:52.666Z,6.70
2022-11-17T23:30:26.583Z,6.70
2022-11-17T23:34:53.517Z,6.80
2022-11-17T23:47:32.895Z,6.70
2022-11-17T23:57:35.244Z,6.70
